Map

Track Data

SID SEASON NUMBER BASIN SUBBASIN NAME ISO_TIME NATURE LAT LON WMO_WIND WMO_PRES WMO_AGENCY TRACK_TYPE DIST2LAND LANDFALL IFLAG USA_AGENCY USA_ATCF_ID USA_LAT USA_LON USA_RECORD USA_STATUS USA_WIND USA_PRES USA_SSHS USA_R34_NE USA_R34_SE USA_R34_SW USA_R34_NW USA_R50_NE USA_R50_SE USA_R50_SW USA_R50_NW USA_R64_NE USA_R64_SE USA_R64_SW USA_R64_NW USA_POCI USA_ROCI USA_RMW USA_EYE TOKYO_LAT TOKYO_LON TOKYO_GRADE TOKYO_WIND TOKYO_PRES TOKYO_R50_DIR TOKYO_R50_LONG TOKYO_R50_SHORT TOKYO_R30_DIR TOKYO_R30_LONG TOKYO_R30_SHORT TOKYO_LAND CMA_LAT CMA_LON CMA_CAT CMA_WIND CMA_PRES HKO_LAT HKO_LON HKO_CAT HKO_WIND HKO_PRES NEWDELHI_LAT NEWDELHI_LON NEWDELHI_GRADE NEWDELHI_WIND NEWDELHI_PRES NEWDELHI_CI NEWDELHI_DP NEWDELHI_POCI REUNION_LAT REUNION_LON REUNION_TYPE REUNION_WIND REUNION_PRES REUNION_TNUM REUNION_CI REUNION_RMW REUNION_R34_NE REUNION_R34_SE REUNION_R34_SW REUNION_R34_NW REUNION_R50_NE REUNION_R50_SE REUNION_R50_SW REUNION_R50_NW REUNION_R64_NE REUNION_R64_SE REUNION_R64_SW REUNION_R64_NW BOM_LAT BOM_LON BOM_TYPE BOM_WIND BOM_PRES BOM_TNUM BOM_CI BOM_RMW BOM_R34_NE BOM_R34_SE BOM_R34_SW BOM_R34_NW BOM_R50_NE BOM_R50_SE BOM_R50_SW BOM_R50_NW BOM_R64_NE BOM_R64_SE BOM_R64_SW BOM_R64_NW BOM_ROCI BOM_POCI BOM_EYE BOM_POS_METHOD BOM_PRES_METHOD NADI_LAT NADI_LON NADI_CAT NADI_WIND NADI_PRES WELLINGTON_LAT WELLINGTON_LON WELLINGTON_WIND WELLINGTON_PRES DS824_LAT DS824_LON DS824_STAGE DS824_WIND DS824_PRES TD9636_LAT TD9636_LON TD9636_STAGE TD9636_WIND TD9636_PRES TD9635_LAT TD9635_LON TD9635_WIND TD9635_PRES TD9635_ROCI NEUMANN_LAT NEUMANN_LON NEUMANN_CLASS NEUMANN_WIND NEUMANN_PRES MLC_LAT MLC_LON MLC_CLASS MLC_WIND MLC_PRES USA_GUST BOM_GUST BOM_GUST_PER REUNION_GUST REUNION_GUST_PER USA_SEAHGT USA_SEARAD_NE USA_SEARAD_SE USA_SEARAD_SW USA_SEARAD_NW STORM_SPEED STORM_DIR
2021030S16177 2021 6 SP MM ANA 2021-01-30 00:00:00 NR -16.1000 176.500 PROVISIONAL 189 149 O_____________ tcvitals SP152021 -16.1000 176.500 35 997 0 155 75 25 60 1002 270 80 7 147
2021030S16177 2021 6 SP MM ANA 2021-01-30 03:00:00 NR -16.3926 176.697 PROVISIONAL 149 119 P_____________ SP152021 -16.3926 176.697 37 994 0 160 102 50 135 1001 250 62 6 142
2021030S16177 2021 6 SP MM ANA 2021-01-30 06:00:00 NR -16.6000 176.900 PROVISIONAL 119 99 O_____________ tcvitals SP152021 -16.6000 176.900 39 991 0 165 130 75 210 1001 230 45 5 126
2021030S16177 2021 6 SP MM ANA 2021-01-30 09:00:00 NR -16.6849 177.120 PROVISIONAL 99 79 P_____________ SP152021 -16.6849 177.120 45 988 0 165 130 75 210 1001 230 40 5 113
2021030S16177 2021 6 SP MM ANA 2021-01-30 12:00:00 NR -16.8000 177.400 PROVISIONAL 79 39 O_____________ tcvitals SP152021 -16.8000 177.400 51 986 0 165 130 75 210 1001 230 35 8 123
2021030S16177 2021 6 SP MM ANA 2021-01-30 15:00:00 NR -17.1127 177.807 PROVISIONAL 39 0 P_____________ SP152021 -17.1127 177.807 55 982 0 175 135 85 207 1000 215 30 10 132
2021030S16177 2021 6 SP MM ANA 2021-01-30 18:00:00 NR -17.5000 178.200 PROVISIONAL 0 0 O_____________ tcvitals SP152021 -17.5000 178.200 60 978 0 185 140 95 205 999 200 25 10 139
2021030S16177 2021 6 SP MM ANA 2021-01-30 21:00:00 NR -17.8574 178.490 PROVISIONAL 0 0 P_____________ SP152021 -17.8574 178.490 62 977 0 175 130 77 192 999 200 19 8 151
2021030S16177 2021 6 SP MM ANA 2021-01-31 00:00:00 NR -18.2000 178.600 PROVISIONAL 11 11 O_____________ tcvitals SP152021 -18.2000 178.600 64 976 1 165 120 60 180 999 200 14 6 188
2021030S16177 2021 6 SP MM ANA 2021-01-31 03:00:00 NR -18.4926 178.401 PROVISIONAL 30 30 P_____________ SP152021 -18.4926 178.401 64 976 1 165 120 60 180 999 195 14 7 212
2021030S16177 2021 6 SP MM ANA 2021-01-31 06:00:00 NR -18.8000 178.200 PROVISIONAL 55 55 O_____________ tcvitals SP152021 -18.8000 178.200 64 976 1 165 120 60 180 999 190 14 7 185
2021030S16177 2021 6 SP MM ANA 2021-01-31 09:00:00 NR -19.1775 178.340 PROVISIONAL 101 101 P_____________ SP152021 -19.1775 178.340 59 978 0 157 127 107 170 999 190 17 9 155
2021030S16177 2021 6 SP MM ANA 2021-01-31 12:00:00 NR -19.6000 178.600 PROVISIONAL 151 151 O_____________ tcvitals SP152021 -19.6000 178.600 54 981 0 150 135 155 160 999 190 20 10 153
2021030S16177 2021 6 SP MM ANA 2021-01-31 15:00:00 NR -20.0575 178.822 PROVISIONAL 210 210 P_____________ SP152021 -20.0575 178.822 54 981 0 150 140 135 155 999 185 20 10 157
2021030S16177 2021 6 SP MM ANA 2021-01-31 18:00:00 NR -20.5000 179.000 PROVISIONAL 260 260 O_____________ tcvitals SP152021 -20.5000 179.000 54 981 0 150 145 115 150 999 180 20 8 165
2021030S16177 2021 6 SP MM ANA 2021-01-31 21:00:00 NR -20.8649 179.050 PROVISIONAL 305 305 P_____________ SP152021 -20.8649 179.050 54 981 0 162 145 120 125 999 177 25 7 172
2021030S16177 2021 6 SP MM ANA 2021-02-01 00:00:00 NR -21.2000 179.100 PROVISIONAL 337 337 O_____________ tcvitals SP152021 -21.2000 179.100 54 982 0 175 145 126 100 1000 175 30 7 163
2021030S16177 2021 6 SP MM ANA 2021-02-01 03:00:00 NR -21.5425 179.270 PROVISIONAL 375 375 P_____________ SP152021 -21.5425 179.270 52 982 0 175 145 126 100 999 182 37 8 152
2021030S16177 2021 6 SP MM ANA 2021-02-01 06:00:00 NR -21.9000 179.500 PROVISIONAL 424 424 O_____________ tcvitals SP152021 -21.9000 179.500 51 983 0 175 145 126 100 999 190 45 9 147
2021030S16177 2021 6 SP MM ANA 2021-02-01 09:00:00 NR -22.3226 179.810 PROVISIONAL 477 477 P_____________ SP152021 -22.3226 179.810 51 981 0 207 167 160 102 999 190 45 9 150
2021030S16177 2021 6 SP MM ANA 2021-02-01 12:00:00 NR -22.7000 180.000 PROVISIONAL 526 526 O_____________ tcvitals SP152021 -22.7000 180.000 51 980 0 240 190 195 105 999 190 45 6 188
2021030S16177 2021 6 SP MM ANA 2021-02-01 15:00:00 NR -22.9088 179.716 PROVISIONAL 537 537 P_____________ SP152021 -22.9088 179.716 45 982 0 242 177 190 110 999 195 45 5 223
2021030S16177 2021 6 SP MM ANA 2021-02-01 18:00:00 NR -23.1000 179.600 PROVISIONAL 556 556 O_____________ tcvitals SP152021 -23.1000 179.600 39 984 0 245 165 185 115 1000 200 45 7 138
2021030S16177 2021 6 SP MM ANA 2021-02-01 21:00:00 NR -23.4226 180.222 PROVISIONAL 606 606 P_____________ SP152021 -23.4226 -179.778 38 986 0 16 114
2021030S16177 2021 6 SP MM ANA 2021-02-02 00:00:00 NR -23.7781 181.231 PROVISIONAL 688 688 I_____________ tcvitals SP152021 -23.7781 -178.769 37 988 0 20 110
2021030S16177 2021 6 SP MM ANA 2021-02-02 03:00:00 NR -24.1027 182.312 PROVISIONAL 767 767 P_____________ SP152021 -24.1027 -177.688 36 990 0 21 107
2021030S16177 2021 6 SP MM ANA 2021-02-02 06:00:00 NR -24.4000 183.400 PROVISIONAL 856 O_____________ tcvitals SP152021 -24.4000 -176.600 35 993 0 1000 190 45 21 107

Digital Typhoon Data and Search

About IBTrACS Database

This database is a web-friendly format of International Best Track Archive for Climate Stewardship (IBTrACS), a global best track data archive curated by NOAA dating back to 1842.

Updated: 2021-12-01